sensor_id;sensor_type;location;lat;lon;timestamp;P1;durP1;ratioP1;P2;durP2;ratioP2
63653;SDS011;49809;47.418;19.080;2023-02-15T00:01:46;20.23;;;10.85;;
63653;SDS011;49809;47.418;19.080;2023-02-15T00:04:49;20.27;;;10.07;;
63653;SDS011;49809;47.418;19.080;2023-02-15T00:07:52;17.77;;;8.68;;
63653;SDS011;49809;47.418;19.080;2023-02-15T00:11:09;22.13;;;11.48;;
63653;SDS011;49809;47.418;19.080;2023-02-15T00:14:15;21.67;;;10.15;;
63653;SDS011;49809;47.418;19.080;2023-02-15T00:17:26;18.23;;;9.02;;
63653;SDS011;49809;47.418;19.080;2023-02-15T00:20:30;19.67;;;11.25;;
63653;SDS011;49809;47.418;19.080;2023-02-15T00:23:35;22.08;;;9.73;;
63653;SDS011;49809;47.418;19.080;2023-02-15T00:26:42;12.63;;;8.18;;
63653;SDS011;49809;47.418;19.080;2023-02-15T00:29:46;25.67;;;12.00;;
63653;SDS011;49809;47.418;19.080;2023-02-15T00:32:50;18.37;;;10.02;;
63653;SDS011;49809;47.418;19.080;2023-02-15T00:35:57;20.20;;;10.20;;
63653;SDS011;49809;47.418;19.080;2023-02-15T00:39:01;18.98;;;10.27;;
63653;SDS011;49809;47.418;19.080;2023-02-15T00:42:05;18.10;;;10.20;;
63653;SDS011;49809;47.418;19.080;2023-02-15T00:45:08;23.23;;;9.63;;
63653;SDS011;49809;47.418;19.080;2023-02-15T00:48:17;20.33;;;9.30;;
63653;SDS011;49809;47.418;19.080;2023-02-15T00:51:20;22.42;;;12.30;;
63653;SDS011;49809;47.418;19.080;2023-02-15T00:54:23;26.17;;;10.77;;
63653;SDS011;49809;47.418;19.080;2023-02-15T00:57:26;18.73;;;10.65;;
63653;SDS011;49809;47.418;19.080;2023-02-15T01:00:31;15.75;;;9.77;;
63653;SDS011;49809;47.418;19.080;2023-02-15T01:03:41;15.02;;;9.65;;
63653;SDS011;49809;47.418;19.080;2023-02-15T01:06:44;25.73;;;9.30;;
63653;SDS011;49809;47.418;19.080;2023-02-15T01:09:50;21.55;;;11.50;;
63653;SDS011;49809;47.418;19.080;2023-02-15T01:13:03;21.17;;;11.90;;
63653;SDS011;49809;47.418;19.080;2023-02-15T01:16:31;15.85;;;9.68;;
63653;SDS011;49809;47.418;19.080;2023-02-15T01:19:35;16.08;;;8.95;;
63653;SDS011;49809;47.418;19.080;2023-02-15T01:22:41;17.48;;;9.23;;
63653;SDS011;49809;47.418;19.080;2023-02-15T01:25:47;26.73;;;11.12;;
63653;SDS011;49809;47.418;19.080;2023-02-15T01:28:50;18.37;;;8.70;;
63653;SDS011;49809;47.418;19.080;2023-02-15T01:31:57;13.85;;;9.20;;
63653;SDS011;49809;47.418;19.080;2023-02-15T01:35:20;18.83;;;10.68;;
63653;SDS011;49809;47.418;19.080;2023-02-15T01:38:29;19.45;;;10.63;;
63653;SDS011;49809;47.418;19.080;2023-02-15T01:41:35;19.65;;;11.20;;
63653;SDS011;49809;47.418;19.080;2023-02-15T01:47:51;18.95;;;8.35;;
63653;SDS011;49809;47.418;19.080;2023-02-15T01:51:08;16.85;;;9.07;;
63653;SDS011;49809;47.418;19.080;2023-02-15T01:54:19;19.52;;;10.40;;
63653;SDS011;49809;47.418;19.080;2023-02-15T01:57:30;22.30;;;10.13;;
63653;SDS011;49809;47.418;19.080;2023-02-15T02:00:36;15.27;;;8.98;;
63653;SDS011;49809;47.418;19.080;2023-02-15T02:03:44;13.85;;;6.85;;
63653;SDS011;49809;47.418;19.080;2023-02-15T02:06:54;21.58;;;9.40;;
63653;SDS011;49809;47.418;19.080;2023-02-15T02:09:59;16.00;;;7.90;;
63653;SDS011;49809;47.418;19.080;2023-02-15T02:13:39;14.75;;;8.80;;
63653;SDS011;49809;47.418;19.080;2023-02-15T02:40:25;15.90;;;7.87;;
63653;SDS011;49809;47.418;19.080;2023-02-15T02:50:59;18.05;;;9.27;;
63653;SDS011;49809;47.418;19.080;2023-02-15T02:54:17;18.25;;;7.05;;
63653;SDS011;49809;47.418;19.080;2023-02-15T02:57:35;19.27;;;9.43;;
63653;SDS011;49809;47.418;19.080;2023-02-15T03:04:31;14.50;;;7.50;;
63653;SDS011;49809;47.418;19.080;2023-02-15T03:08:10;18.50;;;9.57;;
63653;SDS011;49809;47.418;19.080;2023-02-15T03:11:38;17.42;;;7.70;;
63653;SDS011;49809;47.418;19.080;2023-02-15T03:14:59;14.07;;;6.90;;
63653;SDS011;49809;47.418;19.080;2023-02-15T03:18:42;20.95;;;8.88;;
63653;SDS011;49809;47.418;19.080;2023-02-15T03:22:20;15.32;;;8.07;;
63653;SDS011;49809;47.418;19.080;2023-02-15T03:25:50;13.27;;;8.98;;
63653;SDS011;49809;47.418;19.080;2023-02-15T03:29:19;22.80;;;7.65;;
63653;SDS011;49809;47.418;19.080;2023-02-15T03:32:39;15.38;;;6.85;;
63653;SDS011;49809;47.418;19.080;2023-02-15T03:36:02;11.88;;;5.87;;
63653;SDS011;49809;47.418;19.080;2023-02-15T03:43:19;11.00;;;5.30;;
63653;SDS011;49809;47.418;19.080;2023-02-15T03:46:43;6.35;;;5.20;;
63653;SDS011;49809;47.418;19.080;2023-02-15T03:50:12;10.52;;;5.70;;
63653;SDS011;49809;47.418;19.080;2023-02-15T03:53:54;12.75;;;7.50;;
63653;SDS011;49809;47.418;19.080;2023-02-15T03:57:31;12.50;;;6.43;;
63653;SDS011;49809;47.418;19.080;2023-02-15T04:01:23;6.25;;;4.43;;
63653;SDS011;49809;47.418;19.080;2023-02-15T04:05:01;11.02;;;6.82;;
63653;SDS011;49809;47.418;19.080;2023-02-15T04:08:36;8.90;;;7.30;;
63653;SDS011;49809;47.418;19.080;2023-02-15T04:12:16;10.10;;;7.30;;
63653;SDS011;49809;47.418;19.080;2023-02-15T04:15:53;9.70;;;5.62;;
63653;SDS011;49809;47.418;19.080;2023-02-15T04:19:20;9.68;;;5.20;;
63653;SDS011;49809;47.418;19.080;2023-02-15T04:22:58;11.60;;;5.37;;
63653;SDS011;49809;47.418;19.080;2023-02-15T04:26:34;7.85;;;4.87;;
63653;SDS011;49809;47.418;19.080;2023-02-15T04:33:23;9.48;;;5.55;;
63653;SDS011;49809;47.418;19.080;2023-02-15T04:36:46;10.68;;;4.68;;
63653;SDS011;49809;47.418;19.080;2023-02-15T04:40:07;6.15;;;5.00;;
63653;SDS011;49809;47.418;19.080;2023-02-15T04:43:41;11.12;;;7.43;;
63653;SDS011;49809;47.418;19.080;2023-02-15T04:47:01;8.05;;;4.87;;
63653;SDS011;49809;47.418;19.080;2023-02-15T04:50:33;19.62;;;6.65;;
63653;SDS011;49809;47.418;19.080;2023-02-15T04:53:54;10.95;;;6.28;;
63653;SDS011;49809;47.418;19.080;2023-02-15T04:57:29;10.77;;;4.90;;
63653;SDS011;49809;47.418;19.080;2023-02-15T05:01:02;9.90;;;5.85;;
63653;SDS011;49809;47.418;19.080;2023-02-15T05:04:35;26.12;;;5.68;;
63653;SDS011;49809;47.418;19.080;2023-02-15T05:07:53;10.52;;;6.00;;
63653;SDS011;49809;47.418;19.080;2023-02-15T05:11:11;9.82;;;5.68;;
63653;SDS011;49809;47.418;19.080;2023-02-15T05:14:43;10.07;;;5.57;;
63653;SDS011;49809;47.418;19.080;2023-02-15T05:18:21;8.57;;;6.15;;
63653;SDS011;49809;47.418;19.080;2023-02-15T05:21:39;6.72;;;4.53;;
63653;SDS011;49809;47.418;19.080;2023-02-15T05:25:09;6.57;;;4.85;;
63653;SDS011;49809;47.418;19.080;2023-02-15T05:28:45;11.77;;;6.30;;
63653;SDS011;49809;47.418;19.080;2023-02-15T05:32:03;15.23;;;6.15;;
63653;SDS011;49809;47.418;19.080;2023-02-15T05:35:36;8.13;;;5.53;;
63653;SDS011;49809;47.418;19.080;2023-02-15T05:39:12;7.93;;;4.93;;
63653;SDS011;49809;47.418;19.080;2023-02-15T05:42:32;12.85;;;5.82;;
63653;SDS011;49809;47.418;19.080;2023-02-15T05:45:51;10.98;;;7.22;;
63653;SDS011;49809;47.418;19.080;2023-02-15T05:49:27;7.72;;;5.93;;
63653;SDS011;49809;47.418;19.080;2023-02-15T05:53:03;8.77;;;5.45;;
63653;SDS011;49809;47.418;19.080;2023-02-15T05:56:26;8.45;;;4.32;;
63653;SDS011;49809;47.418;19.080;2023-02-15T06:00:03;6.03;;;3.97;;
63653;SDS011;49809;47.418;19.080;2023-02-15T06:03:24;5.12;;;4.60;;
63653;SDS011;49809;47.418;19.080;2023-02-15T06:07:04;9.77;;;4.43;;
63653;SDS011;49809;47.418;19.080;2023-02-15T06:10:26;13.93;;;4.65;;
63653;SDS011;49809;47.418;19.080;2023-02-15T06:13:46;9.43;;;4.90;;
63653;SDS011;49809;47.418;19.080;2023-02-15T06:17:19;6.10;;;5.03;;
63653;SDS011;49809;47.418;19.080;2023-02-15T06:20:41;12.98;;;4.28;;
63653;SDS011;49809;47.418;19.080;2023-02-15T06:24:18;7.72;;;4.97;;
63653;SDS011;49809;47.418;19.080;2023-02-15T06:27:51;8.75;;;5.30;;
63653;SDS011;49809;47.418;19.080;2023-02-15T06:31:28;7.07;;;4.50;;
63653;SDS011;49809;47.418;19.080;2023-02-15T06:34:47;8.95;;;4.12;;
63653;SDS011;49809;47.418;19.080;2023-02-15T06:38:06;7.60;;;4.78;;
63653;SDS011;49809;47.418;19.080;2023-02-15T06:41:26;7.22;;;4.28;;
63653;SDS011;49809;47.418;19.080;2023-02-15T06:48:18;8.07;;;5.65;;
63653;SDS011;49809;47.418;19.080;2023-02-15T06:51:36;17.17;;;6.72;;
63653;SDS011;49809;47.418;19.080;2023-02-15T06:55:07;8.02;;;4.87;;
63653;SDS011;49809;47.418;19.080;2023-02-15T06:58:39;19.40;;;7.40;;
63653;SDS011;49809;47.418;19.080;2023-02-15T07:05:44;7.35;;;6.03;;
63653;SDS011;49809;47.418;19.080;2023-02-15T07:09:20;10.80;;;5.75;;
63653;SDS011;49809;47.418;19.080;2023-02-15T07:13:04;12.82;;;5.97;;
63653;SDS011;49809;47.418;19.080;2023-02-15T07:16:39;15.82;;;7.47;;
63653;SDS011;49809;47.418;19.080;2023-02-15T07:19:59;16.10;;;7.78;;
63653;SDS011;49809;47.418;19.080;2023-02-15T07:23:22;11.95;;;6.35;;
63653;SDS011;49809;47.418;19.080;2023-02-15T07:27:01;12.55;;;5.97;;
63653;SDS011;49809;47.418;19.080;2023-02-15T07:30:34;20.70;;;7.10;;
63653;SDS011;49809;47.418;19.080;2023-02-15T07:33:56;16.98;;;7.18;;
63653;SDS011;49809;47.418;19.080;2023-02-15T07:37:29;14.82;;;6.93;;
63653;SDS011;49809;47.418;19.080;2023-02-15T07:41:05;20.88;;;7.03;;
63653;SDS011;49809;47.418;19.080;2023-02-15T07:44:34;18.83;;;7.20;;
63653;SDS011;49809;47.418;19.080;2023-02-15T07:48:06;18.58;;;7.80;;
63653;SDS011;49809;47.418;19.080;2023-02-15T07:55:09;11.02;;;5.45;;
63653;SDS011;49809;47.418;19.080;2023-02-15T07:58:48;14.98;;;7.03;;
63653;SDS011;49809;47.418;19.080;2023-02-15T08:02:12;17.45;;;8.80;;
63653;SDS011;49809;47.418;19.080;2023-02-15T08:05:46;14.98;;;8.52;;
63653;SDS011;49809;47.418;19.080;2023-02-15T08:09:07;14.02;;;6.97;;
63653;SDS011;49809;47.418;19.080;2023-02-15T08:12:28;16.60;;;8.48;;
63653;SDS011;49809;47.418;19.080;2023-02-15T08:16:03;18.30;;;8.00;;
63653;SDS011;49809;47.418;19.080;2023-02-15T08:19:36;26.80;;;9.10;;
63653;SDS011;49809;47.418;19.080;2023-02-15T08:23:09;19.35;;;9.50;;
63653;SDS011;49809;47.418;19.080;2023-02-15T08:26:28;16.40;;;8.25;;
63653;SDS011;49809;47.418;19.080;2023-02-15T08:30:04;23.00;;;10.10;;
63653;SDS011;49809;47.418;19.080;2023-02-15T08:33:27;17.30;;;8.85;;
63653;SDS011;49809;47.418;19.080;2023-02-15T08:37:05;18.42;;;9.48;;
63653;SDS011;49809;47.418;19.080;2023-02-15T08:40:23;14.30;;;9.20;;
63653;SDS011;49809;47.418;19.080;2023-02-15T08:43:57;23.17;;;10.57;;
63653;SDS011;49809;47.418;19.080;2023-02-15T08:47:19;23.40;;;9.82;;
63653;SDS011;49809;47.418;19.080;2023-02-15T08:50:46;26.65;;;10.60;;
63653;SDS011;49809;47.418;19.080;2023-02-15T08:54:19;16.33;;;10.43;;
63653;SDS011;49809;47.418;19.080;2023-02-15T08:57:38;19.08;;;9.45;;
63653;SDS011;49809;47.418;19.080;2023-02-15T09:01:17;20.58;;;9.63;;
63653;SDS011;49809;47.418;19.080;2023-02-15T09:08:27;16.98;;;8.65;;
63653;SDS011;49809;47.418;19.080;2023-02-15T09:12:01;14.02;;;9.02;;
63653;SDS011;49809;47.418;19.080;2023-02-15T09:15:34;19.00;;;9.77;;
63653;SDS011;49809;47.418;19.080;2023-02-15T09:19:07;15.77;;;8.55;;
63653;SDS011;49809;47.418;19.080;2023-02-15T09:22:40;15.30;;;8.02;;
63653;SDS011;49809;47.418;19.080;2023-02-15T09:26:17;17.55;;;9.45;;
63653;SDS011;49809;47.418;19.080;2023-02-15T09:29:46;18.67;;;9.52;;
63653;SDS011;49809;47.418;19.080;2023-02-15T09:33:24;18.05;;;10.35;;
63653;SDS011;49809;47.418;19.080;2023-02-15T09:36:53;28.17;;;12.65;;
63653;SDS011;49809;47.418;19.080;2023-02-15T09:40:23;24.35;;;10.93;;
63653;SDS011;49809;47.418;19.080;2023-02-15T09:52:00;24.50;;;10.43;;
63653;SDS011;49809;47.418;19.080;2023-02-15T10:26:55;23.08;;;10.98;;
63653;SDS011;49809;47.418;19.080;2023-02-15T10:41:57;22.37;;;11.12;;
63653;SDS011;49809;47.418;19.080;2023-02-15T10:57:49;28.02;;;10.90;;
63653;SDS011;49809;47.418;19.080;2023-02-15T11:01:45;20.93;;;11.17;;
63653;SDS011;49809;47.418;19.080;2023-02-15T11:09:35;19.83;;;10.55;;
63653;SDS011;49809;47.418;19.080;2023-02-15T11:13:15;26.05;;;12.50;;
63653;SDS011;49809;47.418;19.080;2023-02-15T11:24:43;25.90;;;12.65;;
63653;SDS011;49809;47.418;19.080;2023-02-15T11:28:32;28.98;;;14.27;;
63653;SDS011;49809;47.418;19.080;2023-02-15T11:32:19;30.98;;;15.35;;
63653;SDS011;49809;47.418;19.080;2023-02-15T11:36:32;37.17;;;16.70;;
63653;SDS011;49809;47.418;19.080;2023-02-15T11:48:12;31.75;;;15.15;;
63653;SDS011;49809;47.418;19.080;2023-02-15T11:52:00;30.35;;;15.57;;
63653;SDS011;49809;47.418;19.080;2023-02-15T11:55:38;29.17;;;14.57;;
63653;SDS011;49809;47.418;19.080;2023-02-15T11:59:16;26.92;;;13.27;;
63653;SDS011;49809;47.418;19.080;2023-02-15T12:02:57;26.40;;;12.32;;
63653;SDS011;49809;47.418;19.080;2023-02-15T12:06:35;24.25;;;11.50;;
63653;SDS011;49809;47.418;19.080;2023-02-15T12:10:29;21.40;;;10.60;;
63653;SDS011;49809;47.418;19.080;2023-02-15T12:14:09;27.42;;;11.57;;
63653;SDS011;49809;47.418;19.080;2023-02-15T12:17:52;23.73;;;10.88;;
63653;SDS011;49809;47.418;19.080;2023-02-15T12:21:33;22.45;;;10.77;;
63653;SDS011;49809;47.418;19.080;2023-02-15T12:25:22;22.90;;;11.23;;
63653;SDS011;49809;47.418;19.080;2023-02-15T12:28:59;24.23;;;11.48;;
63653;SDS011;49809;47.418;19.080;2023-02-15T12:32:35;23.95;;;11.38;;
63653;SDS011;49809;47.418;19.080;2023-02-15T12:36:22;23.80;;;10.50;;
63653;SDS011;49809;47.418;19.080;2023-02-15T12:40:22;28.45;;;11.52;;
63653;SDS011;49809;47.418;19.080;2023-02-15T12:44:03;25.45;;;11.77;;
63653;SDS011;49809;47.418;19.080;2023-02-15T12:47:38;22.52;;;9.65;;
63653;SDS011;49809;47.418;19.080;2023-02-15T12:51:19;21.60;;;10.68;;
63653;SDS011;49809;47.418;19.080;2023-02-15T12:59:04;21.08;;;11.43;;
63653;SDS011;49809;47.418;19.080;2023-02-15T13:02:41;22.52;;;11.10;;
63653;SDS011;49809;47.418;19.080;2023-02-15T13:06:18;28.85;;;11.10;;
63653;SDS011;49809;47.418;19.080;2023-02-15T13:09:52;25.08;;;10.40;;
63653;SDS011;49809;47.418;19.080;2023-02-15T13:13:26;20.62;;;10.38;;
63653;SDS011;49809;47.418;19.080;2023-02-15T13:17:08;18.02;;;9.48;;
63653;SDS011;49809;47.418;19.080;2023-02-15T13:20:40;20.60;;;10.48;;
63653;SDS011;49809;47.418;19.080;2023-02-15T13:28:58;24.48;;;10.90;;
63653;SDS011;49809;47.418;19.080;2023-02-15T13:32:36;26.30;;;11.23;;
63653;SDS011;49809;47.418;19.080;2023-02-15T13:47:35;23.27;;;9.65;;
63653;SDS011;49809;47.418;19.080;2023-02-15T13:55:52;22.83;;;10.45;;
63653;SDS011;49809;47.418;19.080;2023-02-15T14:07:35;22.67;;;9.05;;
63653;SDS011;49809;47.418;19.080;2023-02-15T14:30:38;18.25;;;7.97;;
63653;SDS011;49809;47.418;19.080;2023-02-15T14:41:53;22.10;;;9.80;;
63653;SDS011;49809;47.418;19.080;2023-02-15T14:45:46;18.92;;;8.88;;
63653;SDS011;49809;47.418;19.080;2023-02-15T14:49:37;18.73;;;8.88;;
63653;SDS011;49809;47.418;19.080;2023-02-15T15:00:47;20.70;;;9.17;;
63653;SDS011;49809;47.418;19.080;2023-02-15T15:04:06;23.65;;;10.40;;
63653;SDS011;49809;47.418;19.080;2023-02-15T15:07:47;22.17;;;9.07;;
63653;SDS011;49809;47.418;19.080;2023-02-15T15:11:44;16.52;;;8.30;;
63653;SDS011;49809;47.418;19.080;2023-02-15T15:19:04;23.58;;;9.55;;
63653;SDS011;49809;47.418;19.080;2023-02-15T15:22:45;16.67;;;7.80;;
63653;SDS011;49809;47.418;19.080;2023-02-15T15:26:27;20.98;;;7.87;;
63653;SDS011;49809;47.418;19.080;2023-02-15T15:42:13;21.00;;;7.90;;
63653;SDS011;49809;47.418;19.080;2023-02-15T15:50:21;13.45;;;7.32;;
63653;SDS011;49809;47.418;19.080;2023-02-15T15:53:54;21.98;;;8.60;;
63653;SDS011;49809;47.418;19.080;2023-02-15T15:57:38;21.95;;;9.38;;
63653;SDS011;49809;47.418;19.080;2023-02-15T16:01:20;18.55;;;9.43;;
63653;SDS011;49809;47.418;19.080;2023-02-15T16:05:06;22.13;;;9.63;;
63653;SDS011;49809;47.418;19.080;2023-02-15T16:08:43;20.15;;;8.65;;
63653;SDS011;49809;47.418;19.080;2023-02-15T16:12:19;23.02;;;9.52;;
63653;SDS011;49809;47.418;19.080;2023-02-15T16:15:56;26.10;;;9.68;;
63653;SDS011;49809;47.418;19.080;2023-02-15T16:19:35;32.40;;;11.15;;
63653;SDS011;49809;47.418;19.080;2023-02-15T16:31:11;28.20;;;10.82;;
63653;SDS011;49809;47.418;19.080;2023-02-15T16:34:59;31.35;;;12.30;;
63653;SDS011;49809;47.418;19.080;2023-02-15T16:42:17;35.90;;;13.35;;
63653;SDS011;49809;47.418;19.080;2023-02-15T16:45:53;24.52;;;10.63;;
63653;SDS011;49809;47.418;19.080;2023-02-15T16:49:35;31.77;;;11.32;;
63653;SDS011;49809;47.418;19.080;2023-02-15T16:53:22;28.12;;;11.35;;
63653;SDS011;49809;47.418;19.080;2023-02-15T16:57:03;25.25;;;12.00;;
63653;SDS011;49809;47.418;19.080;2023-02-15T17:00:39;34.83;;;11.55;;
63653;SDS011;49809;47.418;19.080;2023-02-15T17:11:41;38.75;;;13.48;;
63653;SDS011;49809;47.418;19.080;2023-02-15T17:15:27;28.92;;;14.70;;
63653;SDS011;49809;47.418;19.080;2023-02-15T17:19:08;24.92;;;13.18;;
63653;SDS011;49809;47.418;19.080;2023-02-15T17:26:32;20.52;;;10.68;;
63653;SDS011;49809;47.418;19.080;2023-02-15T17:30:14;28.62;;;12.55;;
63653;SDS011;49809;47.418;19.080;2023-02-15T17:34:40;26.40;;;10.65;;
63653;SDS011;49809;47.418;19.080;2023-02-15T17:38:19;28.52;;;13.57;;
63653;SDS011;49809;47.418;19.080;2023-02-15T17:41:52;26.52;;;12.77;;
63653;SDS011;49809;47.418;19.080;2023-02-15T17:45:29;34.30;;;14.23;;
63653;SDS011;49809;47.418;19.080;2023-02-15T17:49:19;26.85;;;12.25;;
63653;SDS011;49809;47.418;19.080;2023-02-15T17:52:58;27.75;;;12.48;;
63653;SDS011;49809;47.418;19.080;2023-02-15T17:56:36;22.23;;;12.80;;
63653;SDS011;49809;47.418;19.080;2023-02-15T18:00:13;31.05;;;17.33;;
63653;SDS011;49809;47.418;19.080;2023-02-15T18:04:12;35.38;;;13.93;;
63653;SDS011;49809;47.418;19.080;2023-02-15T18:08:04;23.55;;;11.77;;
63653;SDS011;49809;47.418;19.080;2023-02-15T18:15:44;41.30;;;15.32;;
63653;SDS011;49809;47.418;19.080;2023-02-15T18:19:22;40.63;;;15.35;;
63653;SDS011;49809;47.418;19.080;2023-02-15T18:23:00;39.28;;;16.05;;
63653;SDS011;49809;47.418;19.080;2023-02-15T18:26:37;35.35;;;14.40;;
63653;SDS011;49809;47.418;19.080;2023-02-15T18:30:16;29.37;;;15.30;;
63653;SDS011;49809;47.418;19.080;2023-02-15T18:33:32;39.05;;;18.80;;
63653;SDS011;49809;47.418;19.080;2023-02-15T18:37:01;26.50;;;14.45;;
63653;SDS011;49809;47.418;19.080;2023-02-15T18:40:13;46.33;;;16.55;;
63653;SDS011;49809;47.418;19.080;2023-02-15T18:43:23;37.72;;;16.25;;
63653;SDS011;49809;47.418;19.080;2023-02-15T18:46:33;37.58;;;17.05;;
63653;SDS011;49809;47.418;19.080;2023-02-15T18:50:17;38.20;;;17.00;;
63653;SDS011;49809;47.418;19.080;2023-02-15T18:53:22;42.00;;;17.00;;
63653;SDS011;49809;47.418;19.080;2023-02-15T18:56:52;28.17;;;15.35;;
63653;SDS011;49809;47.418;19.080;2023-02-15T18:59:59;30.70;;;15.55;;
63653;SDS011;49809;47.418;19.080;2023-02-15T19:03:04;41.60;;;19.42;;
63653;SDS011;49809;47.418;19.080;2023-02-15T19:06:11;46.95;;;18.87;;
63653;SDS011;49809;47.418;19.080;2023-02-15T19:09:23;26.42;;;14.57;;
63653;SDS011;49809;47.418;19.080;2023-02-15T19:12:32;41.00;;;15.48;;
63653;SDS011;49809;47.418;19.080;2023-02-15T19:15:44;33.85;;;16.40;;
63653;SDS011;49809;47.418;19.080;2023-02-15T19:18:47;43.55;;;16.50;;
63653;SDS011;49809;47.418;19.080;2023-02-15T19:21:51;30.17;;;15.88;;
63653;SDS011;49809;47.418;19.080;2023-02-15T19:25:28;44.20;;;16.90;;
63653;SDS011;49809;47.418;19.080;2023-02-15T19:31:39;18.85;;;12.18;;
63653;SDS011;49809;47.418;19.080;2023-02-15T19:34:45;32.47;;;16.03;;
63653;SDS011;49809;47.418;19.080;2023-02-15T19:37:51;29.20;;;15.57;;
63653;SDS011;49809;47.418;19.080;2023-02-15T19:41:01;33.05;;;16.80;;
63653;SDS011;49809;47.418;19.080;2023-02-15T19:44:11;27.48;;;13.82;;
63653;SDS011;49809;47.418;19.080;2023-02-15T19:47:16;30.67;;;13.27;;
63653;SDS011;49809;47.418;19.080;2023-02-15T19:50:21;34.45;;;14.60;;
63653;SDS011;49809;47.418;19.080;2023-02-15T19:53:32;41.47;;;17.12;;
63653;SDS011;49809;47.418;19.080;2023-02-15T19:56:37;29.55;;;14.23;;
63653;SDS011;49809;47.418;19.080;2023-02-15T19:59:45;27.00;;;15.57;;
63653;SDS011;49809;47.418;19.080;2023-02-15T20:02:49;39.58;;;16.05;;
63653;SDS011;49809;47.418;19.080;2023-02-15T20:06:01;42.55;;;16.70;;
63653;SDS011;49809;47.418;19.080;2023-02-15T20:09:30;23.87;;;14.80;;
63653;SDS011;49809;47.418;19.080;2023-02-15T20:12:37;28.87;;;16.55;;
63653;SDS011;49809;47.418;19.080;2023-02-15T20:16:09;38.83;;;15.02;;
63653;SDS011;49809;47.418;19.080;2023-02-15T20:19:33;38.22;;;17.00;;
63653;SDS011;49809;47.418;19.080;2023-02-15T20:22:36;31.73;;;15.68;;
63653;SDS011;49809;47.418;19.080;2023-02-15T20:25:45;33.03;;;18.83;;
63653;SDS011;49809;47.418;19.080;2023-02-15T20:28:51;30.75;;;16.08;;
63653;SDS011;49809;47.418;19.080;2023-02-15T20:31:58;33.30;;;16.80;;
63653;SDS011;49809;47.418;19.080;2023-02-15T20:35:05;33.30;;;17.48;;
63653;SDS011;49809;47.418;19.080;2023-02-15T20:38:14;38.72;;;17.10;;
63653;SDS011;49809;47.418;19.080;2023-02-15T20:41:20;41.10;;;18.87;;
63653;SDS011;49809;47.418;19.080;2023-02-15T20:44:42;45.97;;;16.50;;
63653;SDS011;49809;47.418;19.080;2023-02-15T20:47:46;28.65;;;16.90;;
63653;SDS011;49809;47.418;19.080;2023-02-15T20:50:54;35.67;;;17.58;;
63653;SDS011;49809;47.418;19.080;2023-02-15T20:53:58;35.58;;;17.67;;
63653;SDS011;49809;47.418;19.080;2023-02-15T20:57:26;35.22;;;17.05;;
63653;SDS011;49809;47.418;19.080;2023-02-15T21:00:30;31.77;;;15.60;;
63653;SDS011;49809;47.418;19.080;2023-02-15T21:03:37;43.75;;;18.27;;
63653;SDS011;49809;47.418;19.080;2023-02-15T21:06:41;43.25;;;20.42;;
63653;SDS011;49809;47.418;19.080;2023-02-15T21:10:09;40.55;;;16.55;;
63653;SDS011;49809;47.418;19.080;2023-02-15T21:13:28;34.05;;;16.65;;
63653;SDS011;49809;47.418;19.080;2023-02-15T21:16:39;33.50;;;18.33;;
63653;SDS011;49809;47.418;19.080;2023-02-15T21:19:42;45.65;;;17.95;;
63653;SDS011;49809;47.418;19.080;2023-02-15T21:22:45;50.28;;;20.25;;
63653;SDS011;49809;47.418;19.080;2023-02-15T21:25:54;32.85;;;16.12;;
63653;SDS011;49809;47.418;19.080;2023-02-15T21:29:00;38.20;;;17.27;;
63653;SDS011;49809;47.418;19.080;2023-02-15T21:32:08;38.20;;;19.67;;
63653;SDS011;49809;47.418;19.080;2023-02-15T21:35:15;31.35;;;17.52;;
63653;SDS011;49809;47.418;19.080;2023-02-15T21:38:23;44.50;;;18.10;;
63653;SDS011;49809;47.418;19.080;2023-02-15T21:42:14;36.25;;;16.92;;
63653;SDS011;49809;47.418;19.080;2023-02-15T21:45:36;31.35;;;16.52;;
63653;SDS011;49809;47.418;19.080;2023-02-15T21:49:01;36.63;;;17.05;;
63653;SDS011;49809;47.418;19.080;2023-02-15T21:52:08;45.50;;;17.80;;
63653;SDS011;49809;47.418;19.080;2023-02-15T21:55:15;30.33;;;17.55;;
63653;SDS011;49809;47.418;19.080;2023-02-15T21:58:24;51.25;;;22.33;;
63653;SDS011;49809;47.418;19.080;2023-02-15T22:01:32;42.30;;;20.73;;
63653;SDS011;49809;47.418;19.080;2023-02-15T22:04:35;30.60;;;14.87;;
63653;SDS011;49809;47.418;19.080;2023-02-15T22:07:38;32.72;;;16.48;;
63653;SDS011;49809;47.418;19.080;2023-02-15T22:10:48;32.38;;;15.43;;
63653;SDS011;49809;47.418;19.080;2023-02-15T22:13:51;34.45;;;17.65;;
63653;SDS011;49809;47.418;19.080;2023-02-15T22:16:57;28.70;;;17.50;;
63653;SDS011;49809;47.418;19.080;2023-02-15T22:20:17;42.33;;;15.82;;
63653;SDS011;49809;47.418;19.080;2023-02-15T22:23:23;35.75;;;16.80;;
63653;SDS011;49809;47.418;19.080;2023-02-15T22:26:27;30.17;;;16.48;;
63653;SDS011;49809;47.418;19.080;2023-02-15T22:29:31;30.58;;;14.57;;
63653;SDS011;49809;47.418;19.080;2023-02-15T22:32:54;31.05;;;17.50;;
63653;SDS011;49809;47.418;19.080;2023-02-15T22:35:59;32.60;;;13.65;;
63653;SDS011;49809;47.418;19.080;2023-02-15T22:42:15;25.00;;;13.02;;
63653;SDS011;49809;47.418;19.080;2023-02-15T22:45:23;26.25;;;13.20;;
63653;SDS011;49809;47.418;19.080;2023-02-15T22:48:27;19.87;;;11.52;;
63653;SDS011;49809;47.418;19.080;2023-02-15T22:51:38;24.23;;;14.38;;
63653;SDS011;49809;47.418;19.080;2023-02-15T22:54:44;36.45;;;14.43;;
63653;SDS011;49809;47.418;19.080;2023-02-15T22:57:48;23.35;;;11.65;;
63653;SDS011;49809;47.418;19.080;2023-02-15T23:00:53;33.35;;;14.70;;
63653;SDS011;49809;47.418;19.080;2023-02-15T23:03:56;29.75;;;13.85;;
63653;SDS011;49809;47.418;19.080;2023-02-15T23:07:04;30.98;;;16.15;;
63653;SDS011;49809;47.418;19.080;2023-02-15T23:10:15;24.98;;;13.57;;
63653;SDS011;49809;47.418;19.080;2023-02-15T23:13:26;40.65;;;16.70;;
63653;SDS011;49809;47.418;19.080;2023-02-15T23:16:32;20.33;;;12.50;;
63653;SDS011;49809;47.418;19.080;2023-02-15T23:19:38;32.33;;;14.05;;
63653;SDS011;49809;47.418;19.080;2023-02-15T23:22:42;19.75;;;12.02;;
63653;SDS011;49809;47.418;19.080;2023-02-15T23:25:47;28.98;;;13.88;;
63653;SDS011;49809;47.418;19.080;2023-02-15T23:28:50;28.62;;;16.50;;
63653;SDS011;49809;47.418;19.080;2023-02-15T23:31:58;23.08;;;12.50;;
63653;SDS011;49809;47.418;19.080;2023-02-15T23:35:04;40.75;;;16.33;;
63653;SDS011;49809;47.418;19.080;2023-02-15T23:38:21;25.75;;;12.43;;
63653;SDS011;49809;47.418;19.080;2023-02-15T23:41:28;22.65;;;12.23;;
63653;SDS011;49809;47.418;19.080;2023-02-15T23:47:37;12.32;;;8.55;;
63653;SDS011;49809;47.418;19.080;2023-02-15T23:51:04;13.93;;;9.38;;
63653;SDS011;49809;47.418;19.080;2023-02-15T23:54:08;24.90;;;12.75;;
63653;SDS011;49809;47.418;19.080;2023-02-15T23:57:11;24.45;;;12.63;;
